createdAt,value
2023-03-12T00:01:34.596Z,97731.66
2023-03-12T00:04:03.971Z,97739.50
2023-03-12T00:06:33.442Z,97735.06
2023-03-12T00:09:03.872Z,97745.72
2023-03-12T00:11:33.282Z,97752.97
2023-03-12T00:14:02.430Z,97761.91
2023-03-12T00:16:31.386Z,97758.91
2023-03-12T00:19:02.271Z,97760.50
2023-03-12T00:21:31.280Z,97760.94
2023-03-12T00:24:00.478Z,97755.84
2023-03-12T00:26:29.709Z,97756.34
2023-03-12T00:28:58.879Z,97759.13
2023-03-12T00:31:33.764Z,97768.31
2023-03-12T00:34:04.767Z,97774.34
2023-03-12T00:36:35.019Z,97770.97
2023-03-12T00:39:04.584Z,97785.50
2023-03-12T00:41:33.586Z,97784.81
2023-03-12T00:44:02.627Z,97784.66
2023-03-12T00:46:31.889Z,97783.56
2023-03-12T00:49:03.097Z,97786.66
2023-03-12T00:51:32.113Z,97782.50
2023-03-12T00:54:01.207Z,97795.81
2023-03-12T00:56:30.297Z,97795.59
2023-03-12T00:58:59.347Z,97799.97
2023-03-12T01:01:28.820Z,97801.31
2023-03-12T01:04:01.737Z,97803.34
2023-03-12T01:06:32.202Z,97809.22
2023-03-12T01:09:03.162Z,97793.81
2023-03-12T01:11:33.732Z,97800.66
2023-03-12T01:14:04.234Z,97795.34
2023-03-12T01:16:33.426Z,97800.88
2023-03-12T01:19:04.364Z,97806.59
2023-03-12T01:21:36.394Z,97801.25
2023-03-12T01:24:06.024Z,97810.31
2023-03-12T01:26:35.124Z,97809.09
2023-03-12T01:29:04.134Z,97810.53
2023-03-12T01:31:33.301Z,97810.59
2023-03-12T01:34:02.442Z,97808.66
2023-03-12T01:36:32.246Z,97808.56
2023-03-12T01:39:02.883Z,97810.72
2023-03-12T01:41:33.959Z,97809.34
2023-03-12T01:44:05.085Z,97810.59
2023-03-12T01:46:37.096Z,97817.72
2023-03-12T01:49:15.265Z,97815.06
2023-03-12T01:51:50.938Z,97814.53
2023-03-12T01:54:26.929Z,97818.81
2023-03-12T01:56:57.581Z,97820.78
2023-03-12T01:59:31.082Z,97822.53
2023-03-12T02:02:00.520Z,97822.47
2023-03-12T02:04:32.432Z,97822.28
2023-03-12T02:07:06.649Z,97827.50
2023-03-12T02:09:41.095Z,97826.28
2023-03-12T02:12:11.135Z,97827.06
2023-03-12T02:14:40.690Z,97835.00
2023-03-12T02:17:12.396Z,97844.63
2023-03-12T02:19:50.346Z,97841.31
2023-03-12T02:22:21.050Z,97844.13
2023-03-12T02:24:57.740Z,97854.03
2023-03-12T02:27:28.274Z,97849.13
2023-03-12T02:29:57.416Z,97855.53
2023-03-12T02:32:30.718Z,97859.44
2023-03-12T02:35:01.572Z,97862.63
2023-03-12T02:37:30.657Z,97865.25
2023-03-12T02:40:06.976Z,97860.09
2023-03-12T02:42:38.760Z,97867.91
2023-03-12T02:45:09.035Z,97865.59
2023-03-12T02:47:38.457Z,97859.88
2023-03-12T02:50:09.496Z,97861.69
2023-03-12T02:52:38.650Z,97873.09
2023-03-12T02:55:08.860Z,97874.47
2023-03-12T02:57:39.385Z,97872.06
2023-03-12T03:00:14.644Z,97877.56
2023-03-12T03:02:48.013Z,97883.81
2023-03-12T03:05:17.196Z,97892.19
2023-03-12T03:07:46.185Z,97891.16
2023-03-12T03:10:17.416Z,97891.59
2023-03-12T03:12:47.925Z,97895.97
2023-03-12T03:15:17.217Z,97902.16
2023-03-12T03:17:46.986Z,97902.31
2023-03-12T03:20:16.084Z,97900.81
2023-03-12T03:22:45.236Z,97903.66
2023-03-12T03:25:14.229Z,97910.78
2023-03-12T03:27:43.283Z,97906.31
2023-03-12T03:30:14.189Z,97912.75
2023-03-12T03:32:46.974Z,97919.84
2023-03-12T03:35:17.508Z,97925.63
2023-03-12T03:37:46.862Z,97927.91
2023-03-12T03:40:16.002Z,97932.50
2023-03-12T03:42:45.248Z,97938.22
2023-03-12T03:45:15.949Z,97935.22
2023-03-12T03:47:46.296Z,97939.13
2023-03-12T03:50:15.698Z,97932.94
2023-03-12T03:52:44.733Z,97940.28
2023-03-12T03:55:13.864Z,97938.88
2023-03-12T03:57:43.236Z,97951.28
2023-03-12T04:00:17.939Z,97949.06
2023-03-12T04:02:49.580Z,97955.16
2023-03-12T04:05:20.868Z,97956.31
2023-03-12T04:07:53.530Z,97962.72
2023-03-12T04:10:26.266Z,97966.19
2023-03-12T04:12:55.646Z,97964.63
2023-03-12T04:15:26.795Z,97967.81
2023-03-12T04:17:56.058Z,97972.66
2023-03-12T04:20:26.021Z,97973.34
2023-03-12T04:22:55.364Z,97981.38
2023-03-12T04:25:25.181Z,97979.69
2023-03-12T04:27:54.306Z,97982.16
2023-03-12T04:30:23.561Z,97985.13
2023-03-12T04:32:55.156Z,97985.19
2023-03-12T04:35:26.370Z,97984.66
2023-03-12T04:37:55.661Z,97979.94
2023-03-12T04:40:25.381Z,97985.00
2023-03-12T04:42:54.645Z,97985.66
2023-03-12T04:45:24.192Z,97980.38
2023-03-12T04:47:54.757Z,97986.13
2023-03-12T04:50:24.117Z,97984.94
2023-03-12T04:52:53.386Z,97995.09
2023-03-12T04:55:22.669Z,97998.13
2023-03-12T04:57:51.796Z,98005.66
2023-03-12T05:00:22.159Z,98001.13
2023-03-12T05:02:51.294Z,98007.00
2023-03-12T05:05:22.343Z,97999.84
2023-03-12T05:07:51.453Z,98008.75
2023-03-12T05:10:20.758Z,98016.94
2023-03-12T05:12:49.850Z,98018.41
2023-03-12T05:15:20.603Z,98027.94
2023-03-12T05:17:50.323Z,98030.22
2023-03-12T05:20:21.808Z,98027.31
2023-03-12T05:22:51.168Z,98028.66
2023-03-12T05:25:20.533Z,98018.34
2023-03-12T05:27:49.620Z,98034.22
2023-03-12T05:30:19.092Z,98043.72
2023-03-12T05:32:48.356Z,98040.78
2023-03-12T05:35:17.591Z,98046.94
2023-03-12T05:37:49.659Z,98042.44
2023-03-12T05:40:19.077Z,98061.34
2023-03-12T05:42:48.361Z,98059.34
2023-03-12T05:45:19.765Z,98065.25
2023-03-12T05:47:52.808Z,98067.00
2023-03-12T05:50:22.080Z,98073.03
2023-03-12T05:52:52.640Z,98076.91
2023-03-12T05:55:21.929Z,98084.34
2023-03-12T05:57:51.167Z,98091.72
2023-03-12T06:00:21.207Z,98083.88
2023-03-12T06:02:57.119Z,98087.84
2023-03-12T06:05:26.326Z,98087.41
2023-03-12T06:07:56.833Z,98095.44
2023-03-12T06:10:25.963Z,98104.91
2023-03-12T06:12:55.042Z,98111.34
2023-03-12T06:15:24.358Z,98114.00
2023-03-12T06:17:53.867Z,98109.81
2023-03-12T06:20:23.853Z,98119.16
2023-03-12T06:22:55.187Z,98119.94
2023-03-12T06:25:25.698Z,98127.78
2023-03-12T06:27:54.760Z,98121.66
2023-03-12T06:30:23.828Z,98132.16
2023-03-12T06:32:52.924Z,98133.97
2023-03-12T06:35:22.397Z,98133.72
2023-03-12T06:37:51.386Z,98137.16
2023-03-12T06:40:20.833Z,98142.19
2023-03-12T06:42:51.243Z,98142.19
2023-03-12T06:45:20.595Z,98144.22
2023-03-12T06:47:49.754Z,98151.09
2023-03-12T06:50:19.425Z,98160.25
2023-03-12T06:52:49.615Z,98152.88
2023-03-12T06:55:18.835Z,98159.00
2023-03-12T06:57:48.086Z,98159.88
2023-03-12T07:00:19.904Z,98158.56
2023-03-12T07:02:48.966Z,98153.50
2023-03-12T07:05:18.157Z,98159.50
2023-03-12T07:07:47.424Z,98164.28
2023-03-12T07:10:16.624Z,98173.94
2023-03-12T07:12:46.277Z,98155.38
2023-03-12T07:15:15.980Z,98162.38
2023-03-12T07:17:46.537Z,98163.53
2023-03-12T07:20:16.221Z,98167.84
2023-03-12T07:22:45.481Z,98167.63
2023-03-12T07:25:15.812Z,98171.69
2023-03-12T07:27:45.919Z,98174.94
2023-03-12T07:30:15.463Z,98181.91
2023-03-12T07:32:44.505Z,98189.38
2023-03-12T07:35:14.923Z,98183.75
2023-03-12T07:37:43.930Z,98191.34
2023-03-12T07:40:14.255Z,98195.44
2023-03-12T07:42:43.325Z,98202.94
2023-03-12T07:45:14.359Z,98210.28
2023-03-12T07:47:43.589Z,98205.13
2023-03-12T07:50:15.418Z,98208.88
2023-03-12T07:52:44.615Z,98213.28
2023-03-12T07:55:14.312Z,98213.56
2023-03-12T07:57:43.766Z,98218.44
2023-03-12T08:00:17.339Z,98232.97
2023-03-12T08:02:46.753Z,98240.22
2023-03-12T08:05:17.482Z,98239.44
2023-03-12T08:07:46.723Z,98240.91
2023-03-12T08:10:15.964Z,98243.06
2023-03-12T08:12:45.375Z,98237.41
2023-03-12T08:15:14.472Z,98236.03
2023-03-12T08:17:44.135Z,98231.06
2023-03-12T08:20:14.412Z,98233.41
2023-03-12T08:22:45.100Z,98222.91
2023-03-12T08:25:14.622Z,98228.63
2023-03-12T08:27:43.688Z,98232.75
2023-03-12T08:30:14.003Z,98236.84
2023-03-12T08:32:43.139Z,98237.84
2023-03-12T08:35:12.367Z,98222.34
2023-03-12T08:37:41.604Z,98225.59
2023-03-12T08:40:14.529Z,98226.78
2023-03-12T08:42:45.537Z,98223.19
2023-03-12T08:45:16.040Z,98228.28
2023-03-12T08:47:45.041Z,98227.38
2023-03-12T08:50:16.622Z,98238.19
2023-03-12T08:52:46.120Z,98234.59
2023-03-12T08:55:16.534Z,98230.22
2023-03-12T08:57:46.116Z,98217.19
2023-03-12T09:00:18.055Z,98224.41
2023-03-12T09:02:49.928Z,98219.59
2023-03-12T09:05:19.274Z,98217.19
2023-03-12T09:07:50.060Z,98216.28
2023-03-12T09:10:20.861Z,98212.31
2023-03-12T09:12:49.899Z,98206.78
2023-03-12T09:15:19.017Z,98207.59
2023-03-12T09:17:48.092Z,98214.00
2023-03-12T09:20:17.157Z,98217.94
2023-03-12T09:22:46.732Z,98215.09
2023-03-12T09:25:16.029Z,98212.13
2023-03-12T09:27:48.651Z,98213.88
2023-03-12T09:30:21.143Z,98204.81
2023-03-12T09:32:50.378Z,98206.78
2023-03-12T09:35:19.532Z,98206.03
2023-03-12T09:37:51.398Z,98206.75
2023-03-12T09:40:25.189Z,98203.41
2023-03-12T09:42:59.566Z,98212.06
2023-03-12T09:45:32.480Z,98217.88
2023-03-12T09:48:04.117Z,98206.91
2023-03-12T09:50:40.019Z,98205.97
2023-03-12T09:53:20.601Z,98201.34
2023-03-12T09:55:53.714Z,98203.06
2023-03-12T09:58:29.764Z,98200.69
2023-03-12T10:01:08.240Z,98202.22
2023-03-12T10:04:06.143Z,98198.47
2023-03-12T10:06:40.955Z,98198.75
2023-03-12T10:09:28.828Z,98201.91
2023-03-12T10:12:10.558Z,98199.28
2023-03-12T10:14:55.808Z,98199.94
2023-03-12T10:17:46.227Z,98205.72
2023-03-12T10:20:43.228Z,98199.41
2023-03-12T10:23:19.730Z,98194.22
2023-03-12T10:25:55.594Z,98197.78
2023-03-12T10:28:35.658Z,98200.94
2023-03-12T10:31:09.873Z,98205.25
2023-03-12T10:33:46.008Z,98199.00
2023-03-12T10:36:19.704Z,98195.19
2023-03-12T10:38:49.816Z,98188.44
2023-03-12T10:41:22.891Z,98175.88
2023-03-12T10:43:52.683Z,98190.31
2023-03-12T10:47:00.815Z,98184.06
2023-03-12T10:49:35.820Z,98183.13
2023-03-12T10:52:08.915Z,98175.53
2023-03-12T10:54:40.712Z,98174.41
2023-03-12T10:57:10.349Z,98180.91
2023-03-12T10:59:43.159Z,98179.09
2023-03-12T11:02:35.526Z,98182.19
2023-03-12T11:05:22.383Z,98169.44
2023-03-12T11:07:52.617Z,98166.50
2023-03-12T11:10:26.849Z,98159.06
2023-03-12T11:13:03.773Z,98168.22
2023-03-12T11:15:41.059Z,98160.41
2023-03-12T11:18:29.817Z,98152.63
2023-03-12T11:21:13.544Z,98156.97
2023-03-12T11:23:44.985Z,98158.34
2023-03-12T11:26:19.739Z,98149.50
2023-03-12T11:28:52.202Z,98136.13
2023-03-12T11:31:27.264Z,98139.25
2023-03-12T11:34:04.528Z,98155.25
2023-03-12T11:36:47.966Z,98137.44
2023-03-12T11:39:27.772Z,98141.81
2023-03-12T11:42:19.050Z,98136.84
2023-03-12T11:45:05.763Z,98123.13
2023-03-12T11:47:55.695Z,98126.03
2023-03-12T11:50:44.820Z,98126.59
2023-03-12T11:53:39.969Z,98120.00
2023-03-12T11:56:28.062Z,98123.72
2023-03-12T11:59:11.559Z,98120.44
2023-03-12T12:01:57.198Z,98118.50
2023-03-12T12:05:05.782Z,98120.75
2023-03-12T12:07:56.457Z,98104.19
2023-03-12T12:10:33.935Z,98103.56
2023-03-12T12:13:11.886Z,98104.16
2023-03-12T12:15:49.049Z,98104.81
2023-03-12T12:18:50.860Z,98105.41
2023-03-12T12:21:39.872Z,98097.53
2023-03-12T12:24:23.727Z,98098.16
2023-03-12T12:27:05.871Z,98094.69
2023-03-12T12:29:53.755Z,98083.41
2023-03-12T12:32:37.140Z,98083.91
2023-03-12T12:35:26.020Z,98067.13
2023-03-12T12:38:00.028Z,98066.06
2023-03-12T12:40:37.490Z,98078.78
2023-03-12T12:43:25.836Z,98074.94
2023-03-12T12:45:58.021Z,98090.66
2023-03-12T12:48:33.233Z,98080.56
2023-03-12T12:51:06.462Z,98084.81
2023-03-12T12:53:48.088Z,98087.38
2023-03-12T12:56:26.999Z,98080.47
2023-03-12T12:59:26.311Z,98075.72
2023-03-12T13:01:58.848Z,98084.81
2023-03-12T13:04:33.043Z,98081.25
2023-03-12T13:07:27.625Z,98081.44
2023-03-12T13:09:58.785Z,98083.13
2023-03-12T13:12:34.813Z,98086.84
2023-03-12T13:15:34.896Z,98093.84
2023-03-12T13:18:10.552Z,98095.22
2023-03-12T13:21:01.253Z,98086.59
2023-03-12T13:23:39.223Z,98077.47
2023-03-12T13:26:17.915Z,98067.97
2023-03-12T13:29:20.182Z,98075.84
2023-03-12T13:31:49.347Z,98086.75
2023-03-12T13:34:47.060Z,98089.78
2023-03-12T13:38:02.002Z,98088.22
2023-03-12T13:41:02.706Z,98088.81
2023-03-12T13:43:56.333Z,98089.72
2023-03-12T13:46:43.041Z,98086.47
2023-03-12T13:49:27.096Z,98096.22
2023-03-12T13:52:11.039Z,98099.34
2023-03-12T13:54:45.086Z,98113.78
2023-03-12T13:57:31.398Z,98099.09
2023-03-12T14:00:01.259Z,98099.53
2023-03-12T14:02:45.333Z,98100.63
2023-03-12T14:05:16.928Z,98105.53
2023-03-12T14:08:12.581Z,98103.44
2023-03-12T14:10:58.311Z,98107.94
2023-03-12T14:13:59.954Z,98100.31
2023-03-12T14:16:36.175Z,98093.66
2023-03-12T14:19:07.886Z,98102.56
2023-03-12T14:21:43.039Z,98105.63
2023-03-12T14:24:29.909Z,98104.41
2023-03-12T14:27:00.003Z,98115.91
2023-03-12T14:29:32.788Z,98108.09
2023-03-12T14:32:07.070Z,98097.75
2023-03-12T14:34:44.013Z,98113.75
2023-03-12T14:37:19.201Z,98107.78
2023-03-12T14:39:54.275Z,98104.22
2023-03-12T14:42:26.269Z,98118.50
2023-03-12T14:44:59.286Z,98114.63
2023-03-12T14:47:30.256Z,98114.63
2023-03-12T14:50:00.883Z,98105.13
2023-03-12T14:52:34.494Z,98104.41
2023-03-12T14:55:13.305Z,98103.66
2023-03-12T14:57:42.856Z,98099.53
2023-03-12T15:00:25.220Z,98110.94
2023-03-12T15:02:57.520Z,98113.28
2023-03-12T15:05:27.976Z,98116.88
2023-03-12T15:08:02.802Z,98128.59
2023-03-12T15:10:34.262Z,98127.16
2023-03-12T15:13:04.463Z,98109.00
2023-03-12T15:15:44.656Z,98107.25
2023-03-12T15:18:20.944Z,98107.44
2023-03-12T15:20:53.658Z,98105.28
2023-03-12T15:23:25.796Z,98099.06
2023-03-12T15:26:13.754Z,98107.22
2023-03-12T15:28:43.687Z,98104.03
2023-03-12T15:31:15.769Z,98100.88
2023-03-12T15:33:46.518Z,98100.56
2023-03-12T15:36:30.132Z,98098.34
2023-03-12T15:39:05.675Z,98101.09
2023-03-12T15:41:47.875Z,98087.25
2023-03-12T15:44:23.306Z,98103.56
2023-03-12T15:46:55.491Z,98103.69
2023-03-12T15:49:28.695Z,98111.59
2023-03-12T15:52:09.205Z,98111.53
2023-03-12T15:54:42.502Z,98109.16
2023-03-12T15:57:24.371Z,98098.09
2023-03-12T16:00:25.202Z,98083.56
2023-03-12T16:02:58.095Z,98078.66
2023-03-12T16:05:31.795Z,98087.75
2023-03-12T16:08:14.011Z,98089.50
2023-03-12T16:10:43.442Z,98093.13
2023-03-12T16:13:16.904Z,98094.72
2023-03-12T16:15:47.925Z,98093.47
2023-03-12T16:18:19.922Z,98102.28
2023-03-12T16:20:50.058Z,98093.13
2023-03-12T16:23:20.645Z,98100.25
2023-03-12T16:25:52.452Z,98089.56
2023-03-12T16:28:23.314Z,98101.47
2023-03-12T16:30:53.032Z,98102.59
2023-03-12T16:33:24.671Z,98098.19
2023-03-12T16:35:54.218Z,98102.03
2023-03-12T16:38:24.643Z,98103.28
2023-03-12T16:40:56.979Z,98103.81
2023-03-12T16:43:29.932Z,98112.47
2023-03-12T16:45:59.191Z,98107.03
2023-03-12T16:48:29.887Z,98106.28
2023-03-12T16:51:00.012Z,98107.19
2023-03-12T16:53:31.576Z,98118.53
2023-03-12T16:56:02.610Z,98127.03
2023-03-12T16:58:32.245Z,98119.56
2023-03-12T17:01:01.588Z,98115.63
2023-03-12T17:03:36.853Z,98125.63
2023-03-12T17:06:13.995Z,98126.06
2023-03-12T17:08:48.290Z,98122.91
2023-03-12T17:11:20.475Z,98124.50
2023-03-12T17:13:53.427Z,98133.28
2023-03-12T17:16:22.665Z,98134.09
2023-03-12T17:18:52.226Z,98132.50
2023-03-12T17:21:22.570Z,98131.69
2023-03-12T17:23:56.769Z,98129.25
2023-03-12T17:26:30.320Z,98141.19
2023-03-12T17:28:59.890Z,98141.16
2023-03-12T17:31:29.359Z,98149.09
2023-03-12T17:33:59.136Z,98149.88
2023-03-12T17:36:28.369Z,98150.19
2023-03-12T17:38:58.668Z,98147.34
2023-03-12T17:41:28.206Z,98148.13
2023-03-12T17:44:01.502Z,98140.13
2023-03-12T17:46:31.993Z,98143.69
2023-03-12T17:49:01.173Z,98155.13
2023-03-12T17:51:30.249Z,98148.69
2023-03-12T17:54:00.829Z,98145.56
2023-03-12T17:56:32.833Z,98137.47
2023-03-12T17:59:02.021Z,98144.91
2023-03-12T18:01:31.043Z,98154.75
2023-03-12T18:04:02.354Z,98157.00
2023-03-12T18:06:31.358Z,98160.81
2023-03-12T18:09:01.900Z,98160.34
2023-03-12T18:11:30.941Z,98161.50
2023-03-12T18:13:59.983Z,98153.72
2023-03-12T18:16:29.063Z,98154.16
2023-03-12T18:18:58.259Z,98163.59
2023-03-12T18:21:27.622Z,98157.94
2023-03-12T18:23:59.441Z,98158.31
2023-03-12T18:26:32.469Z,98176.19
2023-03-12T18:29:02.339Z,98173.69
2023-03-12T18:31:34.388Z,98165.97
2023-03-12T18:34:03.453Z,98168.53
2023-03-12T18:36:32.462Z,98159.03
2023-03-12T18:39:04.520Z,98172.31
2023-03-12T18:41:36.440Z,98171.50
2023-03-12T18:44:06.743Z,98164.25
2023-03-12T18:46:35.956Z,98183.66
2023-03-12T18:49:06.241Z,98182.56
2023-03-12T18:51:36.542Z,98191.03
2023-03-12T18:54:06.015Z,98181.72
2023-03-12T18:56:42.155Z,98182.56
2023-03-12T18:59:13.092Z,98182.69
2023-03-12T19:01:45.582Z,98180.88
2023-03-12T19:04:19.072Z,98192.50
2023-03-12T19:06:51.964Z,98179.19
2023-03-12T19:09:21.435Z,98188.13
2023-03-12T19:11:52.007Z,98188.09
2023-03-12T19:14:21.130Z,98188.75
2023-03-12T19:16:50.344Z,98194.00
2023-03-12T19:19:19.852Z,98192.69
2023-03-12T19:21:52.526Z,98193.44
2023-03-12T19:24:22.015Z,98203.50
2023-03-12T19:26:52.726Z,98193.28
2023-03-12T19:29:21.759Z,98201.19
2023-03-12T19:31:50.814Z,98198.84
2023-03-12T19:34:20.012Z,98213.69
2023-03-12T19:36:51.600Z,98218.53
2023-03-12T19:39:22.606Z,98206.66
2023-03-12T19:41:54.046Z,98211.28
2023-03-12T19:44:23.460Z,98217.84
2023-03-12T19:46:52.752Z,98201.63
2023-03-12T19:49:21.710Z,98203.81
2023-03-12T19:51:50.713Z,98204.94
2023-03-12T19:54:19.913Z,98211.53
2023-03-12T19:56:49.115Z,98228.16
2023-03-12T19:59:22.317Z,98230.34
2023-03-12T20:01:51.419Z,98234.84
2023-03-12T20:04:22.753Z,98235.50
2023-03-12T20:06:51.781Z,98230.69
2023-03-12T20:09:21.809Z,98226.97
2023-03-12T20:11:50.941Z,98230.16
2023-03-12T20:14:21.485Z,98244.84
2023-03-12T20:16:51.039Z,98246.38
2023-03-12T20:19:20.313Z,98236.94
2023-03-12T20:21:52.990Z,98237.81
2023-03-12T20:24:22.213Z,98233.00
2023-03-12T20:26:51.328Z,98235.63
2023-03-12T20:29:21.736Z,98233.00
2023-03-12T20:31:51.186Z,98230.50
2023-03-12T20:34:20.356Z,98241.38
2023-03-12T20:36:51.526Z,98245.31
2023-03-12T20:39:20.761Z,98248.63
2023-03-12T20:41:50.742Z,98263.72
2023-03-12T20:44:21.437Z,98261.13
2023-03-12T20:46:50.582Z,98257.38
2023-03-12T20:49:19.843Z,98258.44
2023-03-12T20:51:49.825Z,98249.88
2023-03-12T20:54:19.059Z,98244.50
2023-03-12T20:56:48.413Z,98246.56
2023-03-12T20:59:17.973Z,98247.88
2023-03-12T21:01:48.542Z,98246.78
2023-03-12T21:04:17.596Z,98258.91
2023-03-12T21:06:51.813Z,98249.03
2023-03-12T21:09:24.084Z,98240.91
2023-03-12T21:11:53.073Z,98249.47
2023-03-12T21:14:22.089Z,98264.31
2023-03-12T21:16:52.731Z,98251.78
2023-03-12T21:19:24.812Z,98258.84
2023-03-12T21:21:53.897Z,98256.97
2023-03-12T21:24:22.935Z,98265.00
2023-03-12T21:26:51.954Z,98262.69
2023-03-12T21:29:20.914Z,98270.53
2023-03-12T21:31:51.832Z,98270.34
2023-03-12T21:34:22.517Z,98272.38
2023-03-12T21:36:51.604Z,98276.19
2023-03-12T21:39:22.933Z,98271.13
2023-03-12T21:41:52.005Z,98283.72
2023-03-12T21:44:21.023Z,98274.88
2023-03-12T21:46:52.633Z,98257.66
2023-03-12T21:49:23.105Z,98259.13
2023-03-12T21:51:52.136Z,98269.13
2023-03-12T21:54:21.227Z,98265.38
2023-03-12T21:56:50.337Z,98266.59
2023-03-12T21:59:19.403Z,98262.47
2023-03-12T22:01:48.464Z,98260.84
2023-03-12T22:04:17.575Z,98260.84
2023-03-12T22:06:48.090Z,98259.00
2023-03-12T22:09:17.194Z,98257.06
2023-03-12T22:11:46.351Z,98253.59
2023-03-12T22:14:15.718Z,98263.44
2023-03-12T22:16:44.766Z,98256.88
2023-03-12T22:19:13.868Z,98262.50
2023-03-12T22:21:43.517Z,98256.94
2023-03-12T22:24:13.905Z,98245.22
2023-03-12T22:26:42.936Z,98252.44
2023-03-12T22:29:11.956Z,98261.22
2023-03-12T22:31:41.003Z,98266.38
2023-03-12T22:34:10.087Z,98283.00
2023-03-12T22:36:40.118Z,98277.28
2023-03-12T22:39:09.225Z,98282.09
2023-03-12T22:41:39.577Z,98272.53
2023-03-12T22:44:09.256Z,98274.97
2023-03-12T22:46:38.443Z,98271.88
2023-03-12T22:49:07.668Z,98273.97
2023-03-12T22:51:39.102Z,98271.19
2023-03-12T22:54:08.180Z,98286.47
2023-03-12T22:56:37.623Z,98292.41
2023-03-12T22:59:08.203Z,98276.56
2023-03-12T23:01:37.363Z,98286.31
2023-03-12T23:04:06.486Z,98300.72
2023-03-12T23:06:35.692Z,98285.72
2023-03-12T23:09:07.324Z,98288.97
2023-03-12T23:11:36.509Z,98300.28
2023-03-12T23:14:05.528Z,98301.28
2023-03-12T23:16:36.041Z,98305.59
2023-03-12T23:19:05.130Z,98293.59
2023-03-12T23:21:36.841Z,98300.00
2023-03-12T23:24:06.236Z,98299.94
2023-03-12T23:26:35.491Z,98304.38
2023-03-12T23:29:04.527Z,98295.84
2023-03-12T23:31:37.833Z,98287.81
2023-03-12T23:34:08.446Z,98291.72
2023-03-12T23:36:37.621Z,98297.25
2023-03-12T23:39:07.375Z,98298.66
2023-03-12T23:41:36.373Z,98297.63
2023-03-12T23:44:05.822Z,98289.47
2023-03-12T23:46:35.160Z,98293.50
2023-03-12T23:49:05.496Z,98291.75
2023-03-12T23:51:34.903Z,98294.75
2023-03-12T23:54:05.991Z,98292.03
2023-03-12T23:56:37.649Z,98288.06
2023-03-12T23:59:09.119Z,98307.44
